sensor_id;sensor_type;location;lat;lon;timestamp;P1;durP1;ratioP1;P2;durP2;ratioP2
77800;SDS011;66991;50.058;14.454;2024-01-10T00:01:24;21.95;;;11.82;;
77800;SDS011;66991;50.058;14.454;2024-01-10T00:03:52;20.95;;;10.52;;
77800;SDS011;66991;50.058;14.454;2024-01-10T00:06:18;26.50;;;10.98;;
77800;SDS011;66991;50.058;14.454;2024-01-10T00:08:43;21.08;;;9.75;;
77800;SDS011;66991;50.058;14.454;2024-01-10T00:11:09;18.33;;;10.10;;
77800;SDS011;66991;50.058;14.454;2024-01-10T00:13:34;19.15;;;9.18;;
77800;SDS011;66991;50.058;14.454;2024-01-10T00:15:59;30.30;;;9.02;;
77800;SDS011;66991;50.058;14.454;2024-01-10T00:18:25;19.25;;;12.63;;
77800;SDS011;66991;50.058;14.454;2024-01-10T00:20:53;25.65;;;10.95;;
77800;SDS011;66991;50.058;14.454;2024-01-10T00:23:19;19.83;;;10.43;;
77800;SDS011;66991;50.058;14.454;2024-01-10T00:25:45;28.05;;;10.93;;
77800;SDS011;66991;50.058;14.454;2024-01-10T00:28:11;24.10;;;11.77;;
77800;SDS011;66991;50.058;14.454;2024-01-10T00:30:37;19.38;;;9.52;;
77800;SDS011;66991;50.058;14.454;2024-01-10T00:33:03;26.58;;;11.60;;
77800;SDS011;66991;50.058;14.454;2024-01-10T00:35:28;26.45;;;11.93;;
77800;SDS011;66991;50.058;14.454;2024-01-10T00:37:54;16.45;;;8.70;;
77800;SDS011;66991;50.058;14.454;2024-01-10T00:40:19;30.27;;;12.45;;
77800;SDS011;66991;50.058;14.454;2024-01-10T00:42:44;27.38;;;10.35;;
77800;SDS011;66991;50.058;14.454;2024-01-10T00:45:10;29.50;;;12.45;;
77800;SDS011;66991;50.058;14.454;2024-01-10T00:47:35;22.85;;;11.02;;
77800;SDS011;66991;50.058;14.454;2024-01-10T00:50:00;20.13;;;10.07;;
77800;SDS011;66991;50.058;14.454;2024-01-10T00:52:26;19.23;;;8.48;;
77800;SDS011;66991;50.058;14.454;2024-01-10T00:54:51;24.25;;;10.05;;
77800;SDS011;66991;50.058;14.454;2024-01-10T00:57:16;26.05;;;11.63;;
77800;SDS011;66991;50.058;14.454;2024-01-10T00:59:42;29.33;;;8.85;;
77800;SDS011;66991;50.058;14.454;2024-01-10T01:02:07;19.63;;;10.82;;
77800;SDS011;66991;50.058;14.454;2024-01-10T01:04:32;15.88;;;8.82;;
77800;SDS011;66991;50.058;14.454;2024-01-10T01:06:58;21.83;;;9.25;;
77800;SDS011;66991;50.058;14.454;2024-01-10T01:09:23;25.88;;;11.68;;
77800;SDS011;66991;50.058;14.454;2024-01-10T01:11:49;18.60;;;8.95;;
77800;SDS011;66991;50.058;14.454;2024-01-10T01:14:15;15.88;;;8.82;;
77800;SDS011;66991;50.058;14.454;2024-01-10T01:16:40;23.67;;;11.63;;
77800;SDS011;66991;50.058;14.454;2024-01-10T01:19:05;20.20;;;10.10;;
77800;SDS011;66991;50.058;14.454;2024-01-10T01:21:30;26.10;;;13.30;;
77800;SDS011;66991;50.058;14.454;2024-01-10T01:23:56;25.60;;;11.35;;
77800;SDS011;66991;50.058;14.454;2024-01-10T01:26:21;18.25;;;9.38;;
77800;SDS011;66991;50.058;14.454;2024-01-10T01:28:46;16.15;;;10.63;;
77800;SDS011;66991;50.058;14.454;2024-01-10T01:31:12;21.73;;;11.68;;
77800;SDS011;66991;50.058;14.454;2024-01-10T01:33:37;24.38;;;12.35;;
77800;SDS011;66991;50.058;14.454;2024-01-10T01:36:04;17.15;;;9.43;;
77800;SDS011;66991;50.058;14.454;2024-01-10T01:38:30;20.63;;;9.98;;
77800;SDS011;66991;50.058;14.454;2024-01-10T01:40:55;21.10;;;8.63;;
77800;SDS011;66991;50.058;14.454;2024-01-10T01:43:21;17.98;;;10.20;;
77800;SDS011;66991;50.058;14.454;2024-01-10T01:45:50;14.35;;;8.70;;
77800;SDS011;66991;50.058;14.454;2024-01-10T01:48:16;17.70;;;9.55;;
77800;SDS011;66991;50.058;14.454;2024-01-10T01:50:42;27.42;;;11.00;;
77800;SDS011;66991;50.058;14.454;2024-01-10T01:53:07;22.25;;;10.25;;
77800;SDS011;66991;50.058;14.454;2024-01-10T01:55:33;21.08;;;11.18;;
77800;SDS011;66991;50.058;14.454;2024-01-10T01:57:59;27.67;;;12.20;;
77800;SDS011;66991;50.058;14.454;2024-01-10T02:00:24;18.98;;;9.40;;
77800;SDS011;66991;50.058;14.454;2024-01-10T02:02:49;24.38;;;10.93;;
77800;SDS011;66991;50.058;14.454;2024-01-10T02:05:15;12.00;;;7.95;;
77800;SDS011;66991;50.058;14.454;2024-01-10T02:07:40;14.05;;;8.70;;
77800;SDS011;66991;50.058;14.454;2024-01-10T02:10:06;12.65;;;8.50;;
77800;SDS011;66991;50.058;14.454;2024-01-10T02:12:32;22.65;;;9.55;;
77800;SDS011;66991;50.058;14.454;2024-01-10T02:14:57;23.73;;;11.88;;
77800;SDS011;66991;50.058;14.454;2024-01-10T02:17:23;23.42;;;11.20;;
77800;SDS011;66991;50.058;14.454;2024-01-10T02:19:48;19.52;;;11.57;;
77800;SDS011;66991;50.058;14.454;2024-01-10T02:22:13;16.25;;;9.27;;
77800;SDS011;66991;50.058;14.454;2024-01-10T02:24:39;20.35;;;9.13;;
77800;SDS011;66991;50.058;14.454;2024-01-10T02:27:04;22.60;;;11.15;;
77800;SDS011;66991;50.058;14.454;2024-01-10T02:29:30;22.02;;;11.52;;
77800;SDS011;66991;50.058;14.454;2024-01-10T02:31:55;25.75;;;11.30;;
77800;SDS011;66991;50.058;14.454;2024-01-10T02:34:21;21.52;;;9.75;;
77800;SDS011;66991;50.058;14.454;2024-01-10T02:36:46;26.80;;;10.40;;
77800;SDS011;66991;50.058;14.454;2024-01-10T02:39:11;18.65;;;10.60;;
77800;SDS011;66991;50.058;14.454;2024-01-10T02:41:36;17.85;;;9.55;;
77800;SDS011;66991;50.058;14.454;2024-01-10T02:44:02;17.55;;;8.02;;
77800;SDS011;66991;50.058;14.454;2024-01-10T02:46:27;15.48;;;8.18;;
77800;SDS011;66991;50.058;14.454;2024-01-10T02:48:53;23.40;;;11.25;;
77800;SDS011;66991;50.058;14.454;2024-01-10T02:51:20;17.70;;;10.13;;
77800;SDS011;66991;50.058;14.454;2024-01-10T02:53:45;24.30;;;11.52;;
77800;SDS011;66991;50.058;14.454;2024-01-10T02:56:10;19.65;;;10.63;;
77800;SDS011;66991;50.058;14.454;2024-01-10T02:58:36;16.38;;;11.95;;
77800;SDS011;66991;50.058;14.454;2024-01-10T03:01:01;27.48;;;10.30;;
77800;SDS011;66991;50.058;14.454;2024-01-10T03:03:26;22.83;;;9.23;;
77800;SDS011;66991;50.058;14.454;2024-01-10T03:05:51;23.88;;;11.68;;
77800;SDS011;66991;50.058;14.454;2024-01-10T03:08:17;21.25;;;11.15;;
77800;SDS011;66991;50.058;14.454;2024-01-10T03:10:42;16.48;;;11.73;;
77800;SDS011;66991;50.058;14.454;2024-01-10T03:13:07;25.30;;;8.85;;
77800;SDS011;66991;50.058;14.454;2024-01-10T03:15:33;18.25;;;9.93;;
77800;SDS011;66991;50.058;14.454;2024-01-10T03:17:58;19.58;;;10.75;;
77800;SDS011;66991;50.058;14.454;2024-01-10T03:20:23;14.05;;;9.93;;
77800;SDS011;66991;50.058;14.454;2024-01-10T03:22:49;23.40;;;11.45;;
77800;SDS011;66991;50.058;14.454;2024-01-10T03:25:14;24.75;;;12.82;;
77800;SDS011;66991;50.058;14.454;2024-01-10T03:27:40;24.80;;;9.68;;
77800;SDS011;66991;50.058;14.454;2024-01-10T03:30:05;28.95;;;11.85;;
77800;SDS011;66991;50.058;14.454;2024-01-10T03:32:31;23.08;;;12.25;;
77800;SDS011;66991;50.058;14.454;2024-01-10T03:34:57;17.27;;;9.85;;
77800;SDS011;66991;50.058;14.454;2024-01-10T03:37:22;21.30;;;11.55;;
77800;SDS011;66991;50.058;14.454;2024-01-10T03:39:47;17.00;;;8.85;;
77800;SDS011;66991;50.058;14.454;2024-01-10T03:42:13;21.15;;;11.70;;
77800;SDS011;66991;50.058;14.454;2024-01-10T03:44:40;25.40;;;10.20;;
77800;SDS011;66991;50.058;14.454;2024-01-10T03:47:05;20.20;;;9.63;;
77800;SDS011;66991;50.058;14.454;2024-01-10T03:49:31;17.00;;;8.13;;
77800;SDS011;66991;50.058;14.454;2024-01-10T03:51:56;14.73;;;9.00;;
77800;SDS011;66991;50.058;14.454;2024-01-10T03:54:21;24.23;;;12.30;;
77800;SDS011;66991;50.058;14.454;2024-01-10T03:56:47;30.02;;;9.90;;
77800;SDS011;66991;50.058;14.454;2024-01-10T03:59:12;16.65;;;9.93;;
77800;SDS011;66991;50.058;14.454;2024-01-10T04:01:37;17.48;;;8.15;;
77800;SDS011;66991;50.058;14.454;2024-01-10T04:04:04;12.27;;;8.18;;
77800;SDS011;66991;50.058;14.454;2024-01-10T04:06:29;21.13;;;10.57;;
77800;SDS011;66991;50.058;14.454;2024-01-10T04:08:55;23.63;;;10.68;;
77800;SDS011;66991;50.058;14.454;2024-01-10T04:11:20;27.00;;;10.05;;
77800;SDS011;66991;50.058;14.454;2024-01-10T04:13:46;16.25;;;9.02;;
77800;SDS011;66991;50.058;14.454;2024-01-10T04:16:11;16.23;;;8.68;;
77800;SDS011;66991;50.058;14.454;2024-01-10T04:18:36;21.77;;;9.88;;
77800;SDS011;66991;50.058;14.454;2024-01-10T04:21:02;17.27;;;8.30;;
77800;SDS011;66991;50.058;14.454;2024-01-10T04:23:27;12.68;;;8.25;;
77800;SDS011;66991;50.058;14.454;2024-01-10T04:25:53;23.38;;;9.15;;
77800;SDS011;66991;50.058;14.454;2024-01-10T04:28:19;24.63;;;9.50;;
77800;SDS011;66991;50.058;14.454;2024-01-10T04:30:44;11.95;;;6.93;;
77800;SDS011;66991;50.058;14.454;2024-01-10T04:33:09;14.40;;;8.13;;
77800;SDS011;66991;50.058;14.454;2024-01-10T04:35:35;21.42;;;10.98;;
77800;SDS011;66991;50.058;14.454;2024-01-10T04:38:00;12.38;;;8.20;;
77800;SDS011;66991;50.058;14.454;2024-01-10T04:40:26;17.88;;;10.75;;
77800;SDS011;66991;50.058;14.454;2024-01-10T04:42:51;18.27;;;8.63;;
77800;SDS011;66991;50.058;14.454;2024-01-10T04:45:16;27.30;;;11.13;;
77800;SDS011;66991;50.058;14.454;2024-01-10T04:47:42;26.00;;;9.05;;
77800;SDS011;66991;50.058;14.454;2024-01-10T04:50:07;18.15;;;9.95;;
77800;SDS011;66991;50.058;14.454;2024-01-10T04:52:33;16.08;;;9.82;;
77800;SDS011;66991;50.058;14.454;2024-01-10T04:54:58;11.45;;;7.40;;
77800;SDS011;66991;50.058;14.454;2024-01-10T04:57:23;15.25;;;8.05;;
77800;SDS011;66991;50.058;14.454;2024-01-10T04:59:49;17.52;;;9.20;;
77800;SDS011;66991;50.058;14.454;2024-01-10T05:02:14;18.30;;;11.32;;
77800;SDS011;66991;50.058;14.454;2024-01-10T05:04:40;27.48;;;9.35;;
77800;SDS011;66991;50.058;14.454;2024-01-10T05:07:05;18.42;;;5.82;;
77800;SDS011;66991;50.058;14.454;2024-01-10T05:09:30;12.23;;;6.78;;
77800;SDS011;66991;50.058;14.454;2024-01-10T05:11:56;18.27;;;8.43;;
77800;SDS011;66991;50.058;14.454;2024-01-10T05:14:21;19.13;;;8.30;;
77800;SDS011;66991;50.058;14.454;2024-01-10T05:16:47;18.00;;;9.27;;
77800;SDS011;66991;50.058;14.454;2024-01-10T05:19:15;20.77;;;9.30;;
77800;SDS011;66991;50.058;14.454;2024-01-10T05:21:40;14.02;;;9.60;;
77800;SDS011;66991;50.058;14.454;2024-01-10T05:24:06;17.48;;;7.78;;
77800;SDS011;66991;50.058;14.454;2024-01-10T05:26:31;13.85;;;7.60;;
77800;SDS011;66991;50.058;14.454;2024-01-10T05:28:57;20.02;;;8.63;;
77800;SDS011;66991;50.058;14.454;2024-01-10T05:31:22;10.60;;;7.43;;
77800;SDS011;66991;50.058;14.454;2024-01-10T05:33:47;18.30;;;8.00;;
77800;SDS011;66991;50.058;14.454;2024-01-10T05:36:13;17.70;;;7.60;;
77800;SDS011;66991;50.058;14.454;2024-01-10T05:38:38;19.25;;;7.88;;
77800;SDS011;66991;50.058;14.454;2024-01-10T05:41:05;19.73;;;9.35;;
77800;SDS011;66991;50.058;14.454;2024-01-10T05:43:30;14.10;;;7.00;;
77800;SDS011;66991;50.058;14.454;2024-01-10T05:45:56;24.38;;;9.38;;
77800;SDS011;66991;50.058;14.454;2024-01-10T05:48:22;24.73;;;9.90;;
77800;SDS011;66991;50.058;14.454;2024-01-10T05:50:47;19.70;;;9.50;;
77800;SDS011;66991;50.058;14.454;2024-01-10T05:53:12;21.13;;;9.07;;
77800;SDS011;66991;50.058;14.454;2024-01-10T05:55:41;15.32;;;8.70;;
77800;SDS011;66991;50.058;14.454;2024-01-10T05:58:07;24.58;;;9.82;;
77800;SDS011;66991;50.058;14.454;2024-01-10T06:00:34;18.52;;;9.20;;
77800;SDS011;66991;50.058;14.454;2024-01-10T06:03:00;17.55;;;7.47;;
77800;SDS011;66991;50.058;14.454;2024-01-10T06:05:25;19.17;;;8.77;;
77800;SDS011;66991;50.058;14.454;2024-01-10T06:07:50;17.02;;;8.02;;
77800;SDS011;66991;50.058;14.454;2024-01-10T06:10:16;18.83;;;8.95;;
77800;SDS011;66991;50.058;14.454;2024-01-10T06:12:42;24.13;;;11.30;;
77800;SDS011;66991;50.058;14.454;2024-01-10T06:15:07;17.55;;;7.43;;
77800;SDS011;66991;50.058;14.454;2024-01-10T06:17:33;27.95;;;9.52;;
77800;SDS011;66991;50.058;14.454;2024-01-10T06:19:58;19.20;;;9.60;;
77800;SDS011;66991;50.058;14.454;2024-01-10T06:22:25;20.05;;;9.60;;
77800;SDS011;66991;50.058;14.454;2024-01-10T06:24:51;24.25;;;8.90;;
77800;SDS011;66991;50.058;14.454;2024-01-10T06:27:16;14.82;;;6.07;;
77800;SDS011;66991;50.058;14.454;2024-01-10T06:29:43;13.30;;;8.43;;
77800;SDS011;66991;50.058;14.454;2024-01-10T06:32:10;6.72;;;5.88;;
77800;SDS011;66991;50.058;14.454;2024-01-10T06:34:35;13.15;;;5.13;;
77800;SDS011;66991;50.058;14.454;2024-01-10T06:37:01;21.70;;;9.90;;
77800;SDS011;66991;50.058;14.454;2024-01-10T06:39:26;17.48;;;7.50;;
77800;SDS011;66991;50.058;14.454;2024-01-10T06:41:52;13.60;;;7.13;;
77800;SDS011;66991;50.058;14.454;2024-01-10T06:44:18;9.68;;;5.70;;
77800;SDS011;66991;50.058;14.454;2024-01-10T06:46:43;18.65;;;7.70;;
77800;SDS011;66991;50.058;14.454;2024-01-10T06:49:09;20.25;;;9.38;;
77800;SDS011;66991;50.058;14.454;2024-01-10T06:51:35;15.02;;;6.68;;
77800;SDS011;66991;50.058;14.454;2024-01-10T06:54:00;10.43;;;6.00;;
77800;SDS011;66991;50.058;14.454;2024-01-10T06:56:29;18.77;;;7.00;;
77800;SDS011;66991;50.058;14.454;2024-01-10T06:58:57;16.63;;;5.78;;
77800;SDS011;66991;50.058;14.454;2024-01-10T07:01:23;17.13;;;6.63;;
77800;SDS011;66991;50.058;14.454;2024-01-10T07:03:49;13.68;;;6.88;;
77800;SDS011;66991;50.058;14.454;2024-01-10T07:06:14;9.82;;;4.85;;
77800;SDS011;66991;50.058;14.454;2024-01-10T07:08:40;18.92;;;6.32;;
77800;SDS011;66991;50.058;14.454;2024-01-10T07:11:07;19.42;;;8.63;;
77800;SDS011;66991;50.058;14.454;2024-01-10T07:13:33;11.68;;;8.20;;
77800;SDS011;66991;50.058;14.454;2024-01-10T07:15:58;18.63;;;7.68;;
77800;SDS011;66991;50.058;14.454;2024-01-10T07:18:26;15.35;;;7.78;;
77800;SDS011;66991;50.058;14.454;2024-01-10T07:20:53;19.83;;;8.88;;
77800;SDS011;66991;50.058;14.454;2024-01-10T07:23:18;14.38;;;7.32;;
77800;SDS011;66991;50.058;14.454;2024-01-10T07:25:43;13.65;;;6.25;;
77800;SDS011;66991;50.058;14.454;2024-01-10T07:28:08;10.88;;;5.80;;
77800;SDS011;66991;50.058;14.454;2024-01-10T07:30:34;13.15;;;7.30;;
77800;SDS011;66991;50.058;14.454;2024-01-10T07:32:59;17.58;;;8.20;;
77800;SDS011;66991;50.058;14.454;2024-01-10T07:35:25;17.67;;;8.20;;
77800;SDS011;66991;50.058;14.454;2024-01-10T07:37:50;14.52;;;7.18;;
77800;SDS011;66991;50.058;14.454;2024-01-10T07:40:15;27.30;;;8.27;;
77800;SDS011;66991;50.058;14.454;2024-01-10T07:42:42;9.82;;;6.85;;
77800;SDS011;66991;50.058;14.454;2024-01-10T07:45:07;14.43;;;6.30;;
77800;SDS011;66991;50.058;14.454;2024-01-10T07:47:33;21.25;;;7.82;;
77800;SDS011;66991;50.058;14.454;2024-01-10T07:50:02;15.93;;;6.55;;
77800;SDS011;66991;50.058;14.454;2024-01-10T07:52:29;10.90;;;5.68;;
77800;SDS011;66991;50.058;14.454;2024-01-10T07:54:54;14.20;;;7.22;;
77800;SDS011;66991;50.058;14.454;2024-01-10T07:57:20;14.48;;;7.10;;
77800;SDS011;66991;50.058;14.454;2024-01-10T07:59:45;22.73;;;7.88;;
77800;SDS011;66991;50.058;14.454;2024-01-10T08:02:10;19.40;;;7.90;;
77800;SDS011;66991;50.058;14.454;2024-01-10T08:04:36;15.93;;;8.98;;
77800;SDS011;66991;50.058;14.454;2024-01-10T08:07:02;17.92;;;8.25;;
77800;SDS011;66991;50.058;14.454;2024-01-10T08:09:27;19.52;;;7.07;;
77800;SDS011;66991;50.058;14.454;2024-01-10T08:11:53;14.35;;;7.45;;
77800;SDS011;66991;50.058;14.454;2024-01-10T08:14:18;16.17;;;8.38;;
77800;SDS011;66991;50.058;14.454;2024-01-10T08:16:43;13.88;;;7.18;;
77800;SDS011;66991;50.058;14.454;2024-01-10T08:19:09;14.85;;;6.45;;
77800;SDS011;66991;50.058;14.454;2024-01-10T08:21:36;20.42;;;7.55;;
77800;SDS011;66991;50.058;14.454;2024-01-10T08:24:02;11.25;;;6.55;;
77800;SDS011;66991;50.058;14.454;2024-01-10T08:26:27;17.70;;;7.90;;
77800;SDS011;66991;50.058;14.454;2024-01-10T08:28:53;13.43;;;7.30;;
77800;SDS011;66991;50.058;14.454;2024-01-10T08:31:18;16.98;;;5.53;;
77800;SDS011;66991;50.058;14.454;2024-01-10T08:33:44;10.23;;;5.28;;
77800;SDS011;66991;50.058;14.454;2024-01-10T08:36:10;10.13;;;7.18;;
77800;SDS011;66991;50.058;14.454;2024-01-10T08:38:35;18.65;;;7.22;;
77800;SDS011;66991;50.058;14.454;2024-01-10T08:41:01;11.88;;;7.07;;
77800;SDS011;66991;50.058;14.454;2024-01-10T08:43:28;16.05;;;8.48;;
77800;SDS011;66991;50.058;14.454;2024-01-10T08:45:53;13.05;;;6.72;;
77800;SDS011;66991;50.058;14.454;2024-01-10T08:48:19;14.27;;;7.07;;
77800;SDS011;66991;50.058;14.454;2024-01-10T08:50:44;8.75;;;5.53;;
77800;SDS011;66991;50.058;14.454;2024-01-10T08:53:10;15.90;;;8.63;;
77800;SDS011;66991;50.058;14.454;2024-01-10T08:55:35;10.73;;;8.30;;
77800;SDS011;66991;50.058;14.454;2024-01-10T08:58:02;11.18;;;5.38;;
77800;SDS011;66991;50.058;14.454;2024-01-10T09:00:28;17.42;;;6.88;;
77800;SDS011;66991;50.058;14.454;2024-01-10T09:02:54;35.13;;;6.78;;
77800;SDS011;66991;50.058;14.454;2024-01-10T09:05:19;17.88;;;7.82;;
77800;SDS011;66991;50.058;14.454;2024-01-10T09:07:46;11.82;;;7.35;;
77800;SDS011;66991;50.058;14.454;2024-01-10T09:10:12;15.05;;;8.50;;
77800;SDS011;66991;50.058;14.454;2024-01-10T09:12:37;14.27;;;7.03;;
77800;SDS011;66991;50.058;14.454;2024-01-10T09:15:03;22.00;;;8.80;;
77800;SDS011;66991;50.058;14.454;2024-01-10T09:17:28;18.40;;;9.05;;
77800;SDS011;66991;50.058;14.454;2024-01-10T09:19:54;15.38;;;7.75;;
77800;SDS011;66991;50.058;14.454;2024-01-10T09:22:19;15.73;;;7.20;;
77800;SDS011;66991;50.058;14.454;2024-01-10T09:24:45;14.30;;;7.78;;
77800;SDS011;66991;50.058;14.454;2024-01-10T09:27:10;16.00;;;8.50;;
77800;SDS011;66991;50.058;14.454;2024-01-10T09:29:36;19.90;;;7.43;;
77800;SDS011;66991;50.058;14.454;2024-01-10T09:32:01;8.70;;;5.80;;
77800;SDS011;66991;50.058;14.454;2024-01-10T09:34:27;18.98;;;6.70;;
77800;SDS011;66991;50.058;14.454;2024-01-10T09:36:52;18.00;;;8.43;;
77800;SDS011;66991;50.058;14.454;2024-01-10T09:39:18;24.33;;;8.20;;
77800;SDS011;66991;50.058;14.454;2024-01-10T09:41:47;13.60;;;7.13;;
77800;SDS011;66991;50.058;14.454;2024-01-10T09:44:19;19.65;;;5.70;;
77800;SDS011;66991;50.058;14.454;2024-01-10T09:46:47;10.50;;;6.90;;
77800;SDS011;66991;50.058;14.454;2024-01-10T09:49:16;14.50;;;7.13;;
77800;SDS011;66991;50.058;14.454;2024-01-10T09:51:41;13.85;;;6.50;;
77800;SDS011;66991;50.058;14.454;2024-01-10T09:54:07;11.85;;;7.05;;
77800;SDS011;66991;50.058;14.454;2024-01-10T09:56:32;15.77;;;6.88;;
77800;SDS011;66991;50.058;14.454;2024-01-10T09:59:01;12.82;;;7.95;;
77800;SDS011;66991;50.058;14.454;2024-01-10T10:01:29;11.50;;;7.28;;
77800;SDS011;66991;50.058;14.454;2024-01-10T10:03:55;18.58;;;7.28;;
77800;SDS011;66991;50.058;14.454;2024-01-10T10:06:21;19.23;;;8.38;;
77800;SDS011;66991;50.058;14.454;2024-01-10T10:08:47;16.77;;;9.13;;
77800;SDS011;66991;50.058;14.454;2024-01-10T10:11:12;22.27;;;7.05;;
77800;SDS011;66991;50.058;14.454;2024-01-10T10:13:41;17.27;;;8.50;;
77800;SDS011;66991;50.058;14.454;2024-01-10T10:16:07;13.77;;;8.40;;
77800;SDS011;66991;50.058;14.454;2024-01-10T10:18:34;13.65;;;7.00;;
77800;SDS011;66991;50.058;14.454;2024-01-10T10:21:18;19.85;;;8.88;;
77800;SDS011;66991;50.058;14.454;2024-01-10T10:23:56;18.88;;;8.40;;
77800;SDS011;66991;50.058;14.454;2024-01-10T10:26:23;14.75;;;6.07;;
77800;SDS011;66991;50.058;14.454;2024-01-10T10:28:49;22.75;;;8.00;;
77800;SDS011;66991;50.058;14.454;2024-01-10T10:31:18;9.57;;;6.35;;
77800;SDS011;66991;50.058;14.454;2024-01-10T10:33:44;27.98;;;7.95;;
77800;SDS011;66991;50.058;14.454;2024-01-10T10:36:10;19.52;;;8.02;;
77800;SDS011;66991;50.058;14.454;2024-01-10T10:38:36;12.77;;;6.22;;
77800;SDS011;66991;50.058;14.454;2024-01-10T10:41:03;14.88;;;7.30;;
77800;SDS011;66991;50.058;14.454;2024-01-10T10:43:30;15.05;;;7.45;;
77800;SDS011;66991;50.058;14.454;2024-01-10T10:45:59;14.90;;;7.28;;
77800;SDS011;66991;50.058;14.454;2024-01-10T10:48:25;18.80;;;8.20;;
77800;SDS011;66991;50.058;14.454;2024-01-10T10:53:21;18.20;;;6.85;;
77800;SDS011;66991;50.058;14.454;2024-01-10T10:55:48;16.52;;;6.93;;
77800;SDS011;66991;50.058;14.454;2024-01-10T10:58:15;16.38;;;7.18;;
77800;SDS011;66991;50.058;14.454;2024-01-10T11:00:40;13.63;;;6.13;;
77800;SDS011;66991;50.058;14.454;2024-01-10T11:03:06;15.25;;;6.50;;
77800;SDS011;66991;50.058;14.454;2024-01-10T11:05:33;12.57;;;5.97;;
77800;SDS011;66991;50.058;14.454;2024-01-10T11:08:00;10.20;;;6.43;;
77800;SDS011;66991;50.058;14.454;2024-01-10T11:10:28;16.42;;;6.82;;
77800;SDS011;66991;50.058;14.454;2024-01-10T11:24:21;11.40;;;5.50;;
77800;SDS011;66991;50.058;14.454;2024-01-10T11:26:47;17.25;;;7.07;;
77800;SDS011;66991;50.058;14.454;2024-01-10T11:29:14;20.00;;;7.65;;
77800;SDS011;66991;50.058;14.454;2024-01-10T11:31:40;24.33;;;9.90;;
77800;SDS011;66991;50.058;14.454;2024-01-10T11:34:05;21.95;;;7.43;;
77800;SDS011;66991;50.058;14.454;2024-01-10T11:36:31;20.33;;;7.97;;
77800;SDS011;66991;50.058;14.454;2024-01-10T11:39:03;18.45;;;6.68;;
77800;SDS011;66991;50.058;14.454;2024-01-10T11:46:48;15.07;;;6.35;;
77800;SDS011;66991;50.058;14.454;2024-01-10T11:49:15;13.95;;;6.95;;
77800;SDS011;66991;50.058;14.454;2024-01-10T11:51:42;18.85;;;8.38;;
77800;SDS011;66991;50.058;14.454;2024-01-10T11:54:08;21.98;;;8.93;;
77800;SDS011;66991;50.058;14.454;2024-01-10T11:56:43;13.27;;;7.32;;
77800;SDS011;66991;50.058;14.454;2024-01-10T11:59:10;14.02;;;6.75;;
77800;SDS011;66991;50.058;14.454;2024-01-10T12:01:40;19.95;;;9.00;;
77800;SDS011;66991;50.058;14.454;2024-01-10T12:04:06;18.88;;;6.95;;
77800;SDS011;66991;50.058;14.454;2024-01-10T12:06:32;16.88;;;6.93;;
77800;SDS011;66991;50.058;14.454;2024-01-10T12:08:59;11.68;;;6.78;;
77800;SDS011;66991;50.058;14.454;2024-01-10T12:11:29;16.80;;;6.32;;
77800;SDS011;66991;50.058;14.454;2024-01-10T12:13:54;20.00;;;8.25;;
77800;SDS011;66991;50.058;14.454;2024-01-10T12:16:20;14.27;;;6.28;;
77800;SDS011;66991;50.058;14.454;2024-01-10T12:18:48;18.80;;;6.45;;
77800;SDS011;66991;50.058;14.454;2024-01-10T12:21:13;15.40;;;7.85;;
77800;SDS011;66991;50.058;14.454;2024-01-10T12:23:39;18.50;;;8.07;;
77800;SDS011;66991;50.058;14.454;2024-01-10T12:26:10;10.68;;;6.53;;
77800;SDS011;66991;50.058;14.454;2024-01-10T12:28:39;12.68;;;6.72;;
77800;SDS011;66991;50.058;14.454;2024-01-10T12:31:05;19.00;;;8.40;;
77800;SDS011;66991;50.058;14.454;2024-01-10T12:33:32;19.10;;;8.75;;
77800;SDS011;66991;50.058;14.454;2024-01-10T12:38:30;15.13;;;7.55;;
77800;SDS011;66991;50.058;14.454;2024-01-10T12:40:56;16.35;;;7.53;;
77800;SDS011;66991;50.058;14.454;2024-01-10T12:43:22;21.02;;;8.00;;
77800;SDS011;66991;50.058;14.454;2024-01-10T12:45:48;8.10;;;5.88;;
77800;SDS011;66991;50.058;14.454;2024-01-10T12:48:13;11.38;;;6.72;;
77800;SDS011;66991;50.058;14.454;2024-01-10T12:50:42;14.23;;;7.93;;
77800;SDS011;66991;50.058;14.454;2024-01-10T12:53:07;17.17;;;8.73;;
77800;SDS011;66991;50.058;14.454;2024-01-10T12:55:32;11.93;;;6.07;;
77800;SDS011;66991;50.058;14.454;2024-01-10T12:57:58;18.10;;;7.03;;
77800;SDS011;66991;50.058;14.454;2024-01-10T13:00:26;19.00;;;7.18;;
77800;SDS011;66991;50.058;14.454;2024-01-10T13:02:51;20.42;;;8.07;;
77800;SDS011;66991;50.058;14.454;2024-01-10T13:05:17;14.00;;;5.93;;
77800;SDS011;66991;50.058;14.454;2024-01-10T13:07:42;16.08;;;7.13;;
77800;SDS011;66991;50.058;14.454;2024-01-10T13:10:07;15.35;;;6.20;;
77800;SDS011;66991;50.058;14.454;2024-01-10T13:12:33;14.05;;;6.95;;
77800;SDS011;66991;50.058;14.454;2024-01-10T13:14:58;13.98;;;6.88;;
77800;SDS011;66991;50.058;14.454;2024-01-10T13:17:24;14.45;;;7.93;;
77800;SDS011;66991;50.058;14.454;2024-01-10T13:19:49;15.75;;;6.22;;
77800;SDS011;66991;50.058;14.454;2024-01-10T13:22:15;21.08;;;8.32;;
77800;SDS011;66991;50.058;14.454;2024-01-10T13:24:44;16.58;;;8.27;;
77800;SDS011;66991;50.058;14.454;2024-01-10T13:27:10;15.55;;;7.72;;
77800;SDS011;66991;50.058;14.454;2024-01-10T13:29:35;11.32;;;5.57;;
77800;SDS011;66991;50.058;14.454;2024-01-10T13:32:02;15.35;;;8.10;;
77800;SDS011;66991;50.058;14.454;2024-01-10T13:34:28;17.60;;;7.30;;
77800;SDS011;66991;50.058;14.454;2024-01-10T13:36:53;15.25;;;8.52;;
77800;SDS011;66991;50.058;14.454;2024-01-10T13:39:19;13.75;;;7.78;;
77800;SDS011;66991;50.058;14.454;2024-01-10T13:41:44;12.60;;;6.97;;
77800;SDS011;66991;50.058;14.454;2024-01-10T13:44:09;16.13;;;7.57;;
77800;SDS011;66991;50.058;14.454;2024-01-10T13:46:35;21.70;;;8.32;;
77800;SDS011;66991;50.058;14.454;2024-01-10T13:49:00;12.82;;;6.30;;
77800;SDS011;66991;50.058;14.454;2024-01-10T13:51:26;13.30;;;7.45;;
77800;SDS011;66991;50.058;14.454;2024-01-10T13:53:51;14.93;;;7.90;;
77800;SDS011;66991;50.058;14.454;2024-01-10T13:56:17;10.02;;;5.63;;
77800;SDS011;66991;50.058;14.454;2024-01-10T13:58:42;14.75;;;7.85;;
77800;SDS011;66991;50.058;14.454;2024-01-10T14:01:07;16.35;;;7.15;;
77800;SDS011;66991;50.058;14.454;2024-01-10T14:03:33;14.75;;;6.20;;
77800;SDS011;66991;50.058;14.454;2024-01-10T14:05:58;13.38;;;6.85;;
77800;SDS011;66991;50.058;14.454;2024-01-10T14:08:23;14.18;;;6.00;;
77800;SDS011;66991;50.058;14.454;2024-01-10T14:10:49;12.45;;;7.22;;
77800;SDS011;66991;50.058;14.454;2024-01-10T14:13:15;18.00;;;8.20;;
77800;SDS011;66991;50.058;14.454;2024-01-10T14:15:40;13.48;;;5.97;;
77800;SDS011;66991;50.058;14.454;2024-01-10T14:18:07;13.85;;;6.57;;
77800;SDS011;66991;50.058;14.454;2024-01-10T14:20:35;21.23;;;7.90;;
77800;SDS011;66991;50.058;14.454;2024-01-10T14:23:01;15.57;;;7.93;;
77800;SDS011;66991;50.058;14.454;2024-01-10T14:25:26;10.75;;;6.03;;
77800;SDS011;66991;50.058;14.454;2024-01-10T14:27:51;16.95;;;7.15;;
77800;SDS011;66991;50.058;14.454;2024-01-10T14:30:17;10.38;;;6.03;;
77800;SDS011;66991;50.058;14.454;2024-01-10T14:32:44;13.93;;;6.18;;